sensor_id;sensor_type;location;lat;lon;timestamp;P1;durP1;ratioP1;P2;durP2;ratioP2
4452;SDS011;2239;48.152;11.584;2024-01-27T00:01:34;2.17;;;0.90;;
4452;SDS011;2239;48.152;11.584;2024-01-27T00:03:59;2.03;;;1.03;;
4452;SDS011;2239;48.152;11.584;2024-01-27T00:06:25;1.33;;;1.03;;
4452;SDS011;2239;48.152;11.584;2024-01-27T00:08:51;2.17;;;1.20;;
4452;SDS011;2239;48.152;11.584;2024-01-27T00:11:17;2.27;;;1.00;;
4452;SDS011;2239;48.152;11.584;2024-01-27T00:13:42;3.67;;;1.23;;
4452;SDS011;2239;48.152;11.584;2024-01-27T00:16:08;2.07;;;1.10;;
4452;SDS011;2239;48.152;11.584;2024-01-27T00:18:37;3.35;;;1.38;;
4452;SDS011;2239;48.152;11.584;2024-01-27T00:21:04;1.50;;;1.27;;
4452;SDS011;2239;48.152;11.584;2024-01-27T00:23:31;4.25;;;0.93;;
4452;SDS011;2239;48.152;11.584;2024-01-27T00:25:57;2.25;;;1.10;;
4452;SDS011;2239;48.152;11.584;2024-01-27T00:28:23;2.77;;;1.30;;
4452;SDS011;2239;48.152;11.584;2024-01-27T00:30:49;4.60;;;1.10;;
4452;SDS011;2239;48.152;11.584;2024-01-27T00:33:14;3.50;;;1.30;;
4452;SDS011;2239;48.152;11.584;2024-01-27T00:35:40;2.00;;;1.03;;
4452;SDS011;2239;48.152;11.584;2024-01-27T00:38:05;1.33;;;1.00;;
4452;SDS011;2239;48.152;11.584;2024-01-27T00:40:31;2.57;;;1.20;;
4452;SDS011;2239;48.152;11.584;2024-01-27T00:42:56;2.87;;;1.00;;
4452;SDS011;2239;48.152;11.584;2024-01-27T00:45:22;3.00;;;1.13;;
4452;SDS011;2239;48.152;11.584;2024-01-27T00:47:48;6.73;;;1.43;;
4452;SDS011;2239;48.152;11.584;2024-01-27T00:50:14;7.93;;;1.13;;
4452;SDS011;2239;48.152;11.584;2024-01-27T00:52:40;3.27;;;1.10;;
4452;SDS011;2239;48.152;11.584;2024-01-27T00:55:06;2.30;;;1.47;;
4452;SDS011;2239;48.152;11.584;2024-01-27T00:57:32;4.83;;;1.43;;
4452;SDS011;2239;48.152;11.584;2024-01-27T00:59:57;2.10;;;1.17;;
4452;SDS011;2239;48.152;11.584;2024-01-27T01:02:23;1.27;;;1.00;;
4452;SDS011;2239;48.152;11.584;2024-01-27T01:04:49;3.77;;;1.40;;
4452;SDS011;2239;48.152;11.584;2024-01-27T01:07:14;1.43;;;1.00;;
4452;SDS011;2239;48.152;11.584;2024-01-27T01:09:40;2.83;;;1.30;;
4452;SDS011;2239;48.152;11.584;2024-01-27T01:12:06;4.27;;;1.23;;
4452;SDS011;2239;48.152;11.584;2024-01-27T01:14:31;1.20;;;0.90;;
4452;SDS011;2239;48.152;11.584;2024-01-27T01:16:57;2.40;;;1.27;;
4452;SDS011;2239;48.152;11.584;2024-01-27T01:19:23;2.97;;;1.17;;
4452;SDS011;2239;48.152;11.584;2024-01-27T01:21:48;1.83;;;1.07;;
4452;SDS011;2239;48.152;11.584;2024-01-27T01:24:14;5.30;;;1.77;;
4452;SDS011;2239;48.152;11.584;2024-01-27T01:26:40;3.00;;;1.17;;
4452;SDS011;2239;48.152;11.584;2024-01-27T01:29:05;3.37;;;1.17;;
4452;SDS011;2239;48.152;11.584;2024-01-27T01:31:31;1.40;;;1.10;;
4452;SDS011;2239;48.152;11.584;2024-01-27T01:33:56;3.97;;;1.27;;
4452;SDS011;2239;48.152;11.584;2024-01-27T01:36:23;2.97;;;1.30;;
4452;SDS011;2239;48.152;11.584;2024-01-27T01:38:48;1.50;;;1.03;;
4452;SDS011;2239;48.152;11.584;2024-01-27T01:41:14;2.97;;;1.27;;
4452;SDS011;2239;48.152;11.584;2024-01-27T01:43:39;3.00;;;1.30;;
4452;SDS011;2239;48.152;11.584;2024-01-27T01:46:05;6.40;;;1.50;;
4452;SDS011;2239;48.152;11.584;2024-01-27T01:48:31;2.10;;;1.37;;
4452;SDS011;2239;48.152;11.584;2024-01-27T01:50:57;3.33;;;1.30;;
4452;SDS011;2239;48.152;11.584;2024-01-27T01:53:24;4.72;;;1.50;;
4452;SDS011;2239;48.152;11.584;2024-01-27T01:55:50;6.40;;;1.70;;
4452;SDS011;2239;48.152;11.584;2024-01-27T01:58:17;5.22;;;2.00;;
4452;SDS011;2239;48.152;11.584;2024-01-27T02:00:43;5.13;;;2.07;;
4452;SDS011;2239;48.152;11.584;2024-01-27T02:03:12;5.73;;;1.63;;
4452;SDS011;2239;48.152;11.584;2024-01-27T02:05:38;6.13;;;1.92;;
4452;SDS011;2239;48.152;11.584;2024-01-27T02:08:04;3.90;;;1.80;;
4452;SDS011;2239;48.152;11.584;2024-01-27T02:10:30;3.20;;;1.40;;
4452;SDS011;2239;48.152;11.584;2024-01-27T02:13:02;3.28;;;1.55;;
4452;SDS011;2239;48.152;11.584;2024-01-27T02:15:28;5.35;;;1.80;;
4452;SDS011;2239;48.152;11.584;2024-01-27T02:17:54;3.37;;;1.50;;
4452;SDS011;2239;48.152;11.584;2024-01-27T02:20:19;3.30;;;1.80;;
4452;SDS011;2239;48.152;11.584;2024-01-27T02:22:45;3.33;;;1.17;;
4452;SDS011;2239;48.152;11.584;2024-01-27T02:25:10;3.07;;;1.57;;
4452;SDS011;2239;48.152;11.584;2024-01-27T02:27:36;2.97;;;1.47;;
4452;SDS011;2239;48.152;11.584;2024-01-27T02:30:02;3.73;;;1.47;;
4452;SDS011;2239;48.152;11.584;2024-01-27T02:32:27;3.33;;;1.10;;
4452;SDS011;2239;48.152;11.584;2024-01-27T02:34:53;7.83;;;1.03;;
4452;SDS011;2239;48.152;11.584;2024-01-27T02:37:18;3.73;;;1.40;;
4452;SDS011;2239;48.152;11.584;2024-01-27T02:39:44;1.97;;;1.13;;
4452;SDS011;2239;48.152;11.584;2024-01-27T02:42:10;1.77;;;1.10;;
4452;SDS011;2239;48.152;11.584;2024-01-27T02:44:35;3.23;;;1.40;;
4452;SDS011;2239;48.152;11.584;2024-01-27T02:47:01;4.97;;;1.20;;
4452;SDS011;2239;48.152;11.584;2024-01-27T02:49:26;3.43;;;1.40;;
4452;SDS011;2239;48.152;11.584;2024-01-27T02:51:52;1.87;;;1.20;;
4452;SDS011;2239;48.152;11.584;2024-01-27T02:54:17;5.07;;;1.10;;
4452;SDS011;2239;48.152;11.584;2024-01-27T02:56:43;2.90;;;1.10;;
4452;SDS011;2239;48.152;11.584;2024-01-27T02:59:08;2.07;;;1.00;;
4452;SDS011;2239;48.152;11.584;2024-01-27T03:01:36;3.58;;;1.15;;
4452;SDS011;2239;48.152;11.584;2024-01-27T03:04:01;2.53;;;1.20;;
4452;SDS011;2239;48.152;11.584;2024-01-27T03:06:28;1.52;;;0.90;;
4452;SDS011;2239;48.152;11.584;2024-01-27T03:08:54;3.23;;;1.00;;
4452;SDS011;2239;48.152;11.584;2024-01-27T03:11:19;2.50;;;1.10;;
4452;SDS011;2239;48.152;11.584;2024-01-27T03:13:45;1.90;;;1.27;;
4452;SDS011;2239;48.152;11.584;2024-01-27T03:16:11;5.90;;;1.10;;
4452;SDS011;2239;48.152;11.584;2024-01-27T03:18:36;5.90;;;1.13;;
4452;SDS011;2239;48.152;11.584;2024-01-27T03:21:02;1.07;;;0.80;;
4452;SDS011;2239;48.152;11.584;2024-01-27T03:23:28;2.42;;;1.15;;
4452;SDS011;2239;48.152;11.584;2024-01-27T03:25:54;4.33;;;1.00;;
4452;SDS011;2239;48.152;11.584;2024-01-27T03:28:19;1.23;;;1.13;;
4452;SDS011;2239;48.152;11.584;2024-01-27T03:30:45;1.35;;;1.10;;
4452;SDS011;2239;48.152;11.584;2024-01-27T03:33:11;5.80;;;1.17;;
4452;SDS011;2239;48.152;11.584;2024-01-27T03:35:37;1.33;;;1.13;;
4452;SDS011;2239;48.152;11.584;2024-01-27T03:38:05;2.47;;;0.90;;
4452;SDS011;2239;48.152;11.584;2024-01-27T03:40:30;3.17;;;1.35;;
4452;SDS011;2239;48.152;11.584;2024-01-27T03:42:56;1.10;;;1.00;;
4452;SDS011;2239;48.152;11.584;2024-01-27T03:45:22;1.97;;;1.17;;
4452;SDS011;2239;48.152;11.584;2024-01-27T03:47:47;1.90;;;0.77;;
4452;SDS011;2239;48.152;11.584;2024-01-27T03:50:13;1.83;;;1.00;;
4452;SDS011;2239;48.152;11.584;2024-01-27T03:52:38;1.00;;;0.90;;
4452;SDS011;2239;48.152;11.584;2024-01-27T03:55:04;2.20;;;1.07;;
4452;SDS011;2239;48.152;11.584;2024-01-27T03:57:30;5.85;;;1.02;;
4452;SDS011;2239;48.152;11.584;2024-01-27T03:59:56;2.03;;;0.87;;
4452;SDS011;2239;48.152;11.584;2024-01-27T04:02:21;2.80;;;1.00;;
4452;SDS011;2239;48.152;11.584;2024-01-27T04:04:47;3.53;;;1.43;;
4452;SDS011;2239;48.152;11.584;2024-01-27T04:07:13;4.10;;;0.90;;
4452;SDS011;2239;48.152;11.584;2024-01-27T04:09:38;6.93;;;1.23;;
4452;SDS011;2239;48.152;11.584;2024-01-27T04:12:04;2.13;;;1.10;;
4452;SDS011;2239;48.152;11.584;2024-01-27T04:14:29;1.10;;;1.00;;
4452;SDS011;2239;48.152;11.584;2024-01-27T04:16:55;1.20;;;1.00;;
4452;SDS011;2239;48.152;11.584;2024-01-27T04:19:21;0.90;;;0.90;;
4452;SDS011;2239;48.152;11.584;2024-01-27T04:21:46;5.10;;;1.20;;
4452;SDS011;2239;48.152;11.584;2024-01-27T04:24:12;10.60;;;1.20;;
4452;SDS011;2239;48.152;11.584;2024-01-27T04:26:37;2.27;;;1.27;;
4452;SDS011;2239;48.152;11.584;2024-01-27T04:29:03;1.60;;;0.80;;
4452;SDS011;2239;48.152;11.584;2024-01-27T04:31:28;2.20;;;1.03;;
4452;SDS011;2239;48.152;11.584;2024-01-27T04:33:56;3.17;;;1.20;;
4452;SDS011;2239;48.152;11.584;2024-01-27T04:36:25;4.20;;;1.00;;
4452;SDS011;2239;48.152;11.584;2024-01-27T04:38:52;2.05;;;1.00;;
4452;SDS011;2239;48.152;11.584;2024-01-27T04:41:17;2.87;;;0.80;;
4452;SDS011;2239;48.152;11.584;2024-01-27T04:43:43;1.63;;;1.00;;
4452;SDS011;2239;48.152;11.584;2024-01-27T04:46:08;7.50;;;1.47;;
4452;SDS011;2239;48.152;11.584;2024-01-27T04:48:34;2.37;;;0.93;;
4452;SDS011;2239;48.152;11.584;2024-01-27T04:51:00;1.73;;;1.10;;
4452;SDS011;2239;48.152;11.584;2024-01-27T04:53:25;3.40;;;1.10;;
4452;SDS011;2239;48.152;11.584;2024-01-27T04:55:50;1.80;;;1.00;;
4452;SDS011;2239;48.152;11.584;2024-01-27T04:58:16;4.10;;;1.57;;
4452;SDS011;2239;48.152;11.584;2024-01-27T05:00:42;1.67;;;1.10;;
4452;SDS011;2239;48.152;11.584;2024-01-27T05:03:07;3.23;;;1.20;;
4452;SDS011;2239;48.152;11.584;2024-01-27T05:05:40;2.75;;;1.15;;
4452;SDS011;2239;48.152;11.584;2024-01-27T05:08:06;3.40;;;1.27;;
4452;SDS011;2239;48.152;11.584;2024-01-27T05:10:31;3.40;;;1.17;;
4452;SDS011;2239;48.152;11.584;2024-01-27T05:12:57;2.47;;;1.00;;
4452;SDS011;2239;48.152;11.584;2024-01-27T05:15:22;4.10;;;1.17;;
4452;SDS011;2239;48.152;11.584;2024-01-27T05:17:48;2.93;;;1.30;;
4452;SDS011;2239;48.152;11.584;2024-01-27T05:20:13;6.00;;;1.57;;
4452;SDS011;2239;48.152;11.584;2024-01-27T05:22:39;1.43;;;1.07;;
4452;SDS011;2239;48.152;11.584;2024-01-27T05:25:05;2.03;;;1.00;;
4452;SDS011;2239;48.152;11.584;2024-01-27T05:27:30;3.70;;;1.27;;
4452;SDS011;2239;48.152;11.584;2024-01-27T05:29:56;1.57;;;1.30;;
4452;SDS011;2239;48.152;11.584;2024-01-27T05:32:21;1.57;;;1.03;;
4452;SDS011;2239;48.152;11.584;2024-01-27T05:34:47;4.20;;;1.10;;
4452;SDS011;2239;48.152;11.584;2024-01-27T05:37:13;2.40;;;1.10;;
4452;SDS011;2239;48.152;11.584;2024-01-27T05:39:38;3.80;;;1.23;;
4452;SDS011;2239;48.152;11.584;2024-01-27T05:42:04;1.75;;;0.95;;
4452;SDS011;2239;48.152;11.584;2024-01-27T05:44:30;3.00;;;1.20;;
4452;SDS011;2239;48.152;11.584;2024-01-27T05:46:56;3.90;;;1.50;;
4452;SDS011;2239;48.152;11.584;2024-01-27T05:49:21;2.73;;;1.63;;
4452;SDS011;2239;48.152;11.584;2024-01-27T05:51:47;4.70;;;1.57;;
4452;SDS011;2239;48.152;11.584;2024-01-27T05:54:13;3.15;;;1.27;;
4452;SDS011;2239;48.152;11.584;2024-01-27T05:56:41;4.18;;;1.20;;
4452;SDS011;2239;48.152;11.584;2024-01-27T05:59:07;2.40;;;1.00;;
4452;SDS011;2239;48.152;11.584;2024-01-27T06:01:32;1.40;;;1.20;;
4452;SDS011;2239;48.152;11.584;2024-01-27T06:03:58;2.73;;;1.17;;
4452;SDS011;2239;48.152;11.584;2024-01-27T06:06:24;2.97;;;1.10;;
4452;SDS011;2239;48.152;11.584;2024-01-27T06:08:49;6.83;;;1.43;;
4452;SDS011;2239;48.152;11.584;2024-01-27T06:11:22;4.03;;;1.20;;
4452;SDS011;2239;48.152;11.584;2024-01-27T06:13:48;5.25;;;1.40;;
4452;SDS011;2239;48.152;11.584;2024-01-27T06:16:14;3.08;;;1.20;;
4452;SDS011;2239;48.152;11.584;2024-01-27T06:18:43;1.45;;;0.93;;
4452;SDS011;2239;48.152;11.584;2024-01-27T06:21:09;3.37;;;1.63;;
4452;SDS011;2239;48.152;11.584;2024-01-27T06:23:35;1.27;;;1.17;;
4452;SDS011;2239;48.152;11.584;2024-01-27T06:26:07;1.63;;;1.07;;
4452;SDS011;2239;48.152;11.584;2024-01-27T06:28:33;1.42;;;1.25;;
4452;SDS011;2239;48.152;11.584;2024-01-27T06:30:59;2.58;;;1.40;;
4452;SDS011;2239;48.152;11.584;2024-01-27T06:33:26;1.55;;;0.90;;
4452;SDS011;2239;48.152;11.584;2024-01-27T06:35:51;4.30;;;1.57;;
4452;SDS011;2239;48.152;11.584;2024-01-27T06:38:17;5.40;;;1.30;;
4452;SDS011;2239;48.152;11.584;2024-01-27T06:40:42;1.83;;;1.17;;
4452;SDS011;2239;48.152;11.584;2024-01-27T06:43:09;1.53;;;1.37;;
4452;SDS011;2239;48.152;11.584;2024-01-27T06:45:37;1.80;;;1.15;;
4452;SDS011;2239;48.152;11.584;2024-01-27T06:48:02;5.00;;;1.57;;
4452;SDS011;2239;48.152;11.584;2024-01-27T06:50:29;1.77;;;0.90;;
4452;SDS011;2239;48.152;11.584;2024-01-27T06:52:54;2.50;;;1.23;;
4452;SDS011;2239;48.152;11.584;2024-01-27T06:55:20;1.77;;;1.10;;
4452;SDS011;2239;48.152;11.584;2024-01-27T06:57:45;2.60;;;1.50;;
4452;SDS011;2239;48.152;11.584;2024-01-27T07:00:11;1.73;;;1.33;;
4452;SDS011;2239;48.152;11.584;2024-01-27T07:02:39;1.40;;;1.20;;
4452;SDS011;2239;48.152;11.584;2024-01-27T07:05:06;3.08;;;1.42;;
4452;SDS011;2239;48.152;11.584;2024-01-27T07:07:32;3.35;;;1.35;;
4452;SDS011;2239;48.152;11.584;2024-01-27T07:09:58;4.47;;;1.63;;
4452;SDS011;2239;48.152;11.584;2024-01-27T07:12:23;3.27;;;1.43;;
4452;SDS011;2239;48.152;11.584;2024-01-27T07:14:49;2.03;;;1.10;;
4452;SDS011;2239;48.152;11.584;2024-01-27T07:17:16;4.20;;;1.95;;
4452;SDS011;2239;48.152;11.584;2024-01-27T07:19:41;3.47;;;1.63;;
4452;SDS011;2239;48.152;11.584;2024-01-27T07:22:07;5.70;;;1.50;;
4452;SDS011;2239;48.152;11.584;2024-01-27T07:24:33;4.43;;;1.93;;
4452;SDS011;2239;48.152;11.584;2024-01-27T07:27:01;14.67;;;2.30;;
4452;SDS011;2239;48.152;11.584;2024-01-27T07:29:28;3.87;;;1.70;;
4452;SDS011;2239;48.152;11.584;2024-01-27T07:31:54;1.90;;;1.63;;
4452;SDS011;2239;48.152;11.584;2024-01-27T07:34:20;3.93;;;1.80;;
4452;SDS011;2239;48.152;11.584;2024-01-27T07:36:45;10.23;;;1.87;;
4452;SDS011;2239;48.152;11.584;2024-01-27T07:39:13;5.97;;;1.67;;
4452;SDS011;2239;48.152;11.584;2024-01-27T07:41:38;2.83;;;1.80;;
4452;SDS011;2239;48.152;11.584;2024-01-27T07:44:08;5.57;;;1.80;;
4452;SDS011;2239;48.152;11.584;2024-01-27T07:46:35;4.77;;;2.00;;
4452;SDS011;2239;48.152;11.584;2024-01-27T07:49:01;3.67;;;1.70;;
4452;SDS011;2239;48.152;11.584;2024-01-27T07:51:28;6.30;;;2.07;;
4452;SDS011;2239;48.152;11.584;2024-01-27T07:53:53;8.07;;;1.87;;
4452;SDS011;2239;48.152;11.584;2024-01-27T07:56:19;4.20;;;2.07;;
4452;SDS011;2239;48.152;11.584;2024-01-27T07:58:44;3.50;;;1.70;;
4452;SDS011;2239;48.152;11.584;2024-01-27T08:01:10;5.20;;;2.20;;
4452;SDS011;2239;48.152;11.584;2024-01-27T08:03:39;9.37;;;2.03;;
4452;SDS011;2239;48.152;11.584;2024-01-27T08:06:04;11.73;;;2.30;;
4452;SDS011;2239;48.152;11.584;2024-01-27T08:08:32;3.50;;;2.00;;
4452;SDS011;2239;48.152;11.584;2024-01-27T08:10:58;8.30;;;2.10;;
4452;SDS011;2239;48.152;11.584;2024-01-27T08:13:23;5.70;;;2.10;;
4452;SDS011;2239;48.152;11.584;2024-01-27T08:15:48;4.63;;;2.10;;
4452;SDS011;2239;48.152;11.584;2024-01-27T08:18:14;3.33;;;1.60;;
4452;SDS011;2239;48.152;11.584;2024-01-27T08:20:40;3.07;;;1.90;;
4452;SDS011;2239;48.152;11.584;2024-01-27T08:23:05;6.93;;;2.40;;
4452;SDS011;2239;48.152;11.584;2024-01-27T08:25:31;6.23;;;2.47;;
4452;SDS011;2239;48.152;11.584;2024-01-27T08:27:56;3.63;;;2.00;;
4452;SDS011;2239;48.152;11.584;2024-01-27T08:30:22;3.60;;;2.10;;
4452;SDS011;2239;48.152;11.584;2024-01-27T08:32:48;5.03;;;2.40;;
4452;SDS011;2239;48.152;11.584;2024-01-27T08:35:13;6.20;;;2.60;;
4452;SDS011;2239;48.152;11.584;2024-01-27T08:37:39;6.87;;;2.27;;
4452;SDS011;2239;48.152;11.584;2024-01-27T08:40:05;6.83;;;2.30;;
4452;SDS011;2239;48.152;11.584;2024-01-27T08:42:31;7.50;;;3.27;;
4452;SDS011;2239;48.152;11.584;2024-01-27T08:44:56;4.93;;;2.10;;
4452;SDS011;2239;48.152;11.584;2024-01-27T08:47:22;7.23;;;2.40;;
4452;SDS011;2239;48.152;11.584;2024-01-27T08:49:47;4.80;;;2.40;;
4452;SDS011;2239;48.152;11.584;2024-01-27T08:52:13;4.30;;;2.60;;
4452;SDS011;2239;48.152;11.584;2024-01-27T08:54:38;10.33;;;3.00;;
4452;SDS011;2239;48.152;11.584;2024-01-27T08:57:04;5.40;;;2.30;;
4452;SDS011;2239;48.152;11.584;2024-01-27T08:59:29;6.77;;;2.77;;
4452;SDS011;2239;48.152;11.584;2024-01-27T09:01:55;7.10;;;2.33;;
4452;SDS011;2239;48.152;11.584;2024-01-27T09:04:21;3.40;;;2.20;;
4452;SDS011;2239;48.152;11.584;2024-01-27T09:06:46;8.13;;;3.63;;
4452;SDS011;2239;48.152;11.584;2024-01-27T09:09:12;6.67;;;2.20;;
4452;SDS011;2239;48.152;11.584;2024-01-27T09:11:38;3.30;;;2.17;;
4452;SDS011;2239;48.152;11.584;2024-01-27T09:14:04;6.87;;;2.03;;
4452;SDS011;2239;48.152;11.584;2024-01-27T09:16:32;6.10;;;2.73;;
4452;SDS011;2239;48.152;11.584;2024-01-27T09:18:57;7.70;;;2.73;;
4452;SDS011;2239;48.152;11.584;2024-01-27T09:21:23;3.80;;;2.57;;
4452;SDS011;2239;48.152;11.584;2024-01-27T09:23:53;7.83;;;3.07;;
4452;SDS011;2239;48.152;11.584;2024-01-27T09:26:19;4.70;;;2.40;;
4452;SDS011;2239;48.152;11.584;2024-01-27T09:28:45;6.87;;;2.43;;
4452;SDS011;2239;48.152;11.584;2024-01-27T09:31:18;4.60;;;2.63;;
4452;SDS011;2239;48.152;11.584;2024-01-27T09:33:46;9.40;;;3.10;;
4452;SDS011;2239;48.152;11.584;2024-01-27T09:36:13;5.73;;;2.83;;
4452;SDS011;2239;48.152;11.584;2024-01-27T09:38:39;13.17;;;3.07;;
4452;SDS011;2239;48.152;11.584;2024-01-27T09:41:04;7.90;;;3.03;;
4452;SDS011;2239;48.152;11.584;2024-01-27T09:43:30;3.93;;;2.77;;
4452;SDS011;2239;48.152;11.584;2024-01-27T09:45:56;6.20;;;2.60;;
4452;SDS011;2239;48.152;11.584;2024-01-27T09:48:22;5.07;;;2.70;;
4452;SDS011;2239;48.152;11.584;2024-01-27T09:50:48;3.80;;;2.57;;
4452;SDS011;2239;48.152;11.584;2024-01-27T09:53:15;6.13;;;2.43;;
4452;SDS011;2239;48.152;11.584;2024-01-27T09:55:41;8.33;;;2.90;;
4452;SDS011;2239;48.152;11.584;2024-01-27T09:58:09;5.70;;;2.87;;
4452;SDS011;2239;48.152;11.584;2024-01-27T10:00:35;4.07;;;2.40;;
4452;SDS011;2239;48.152;11.584;2024-01-27T10:03:01;5.93;;;2.60;;
4452;SDS011;2239;48.152;11.584;2024-01-27T10:05:28;3.80;;;2.50;;
4452;SDS011;2239;48.152;11.584;2024-01-27T10:07:55;8.20;;;3.00;;
4452;SDS011;2239;48.152;11.584;2024-01-27T10:10:20;9.90;;;2.80;;
4452;SDS011;2239;48.152;11.584;2024-01-27T10:12:46;5.03;;;2.47;;
4452;SDS011;2239;48.152;11.584;2024-01-27T10:15:19;7.23;;;2.63;;
4452;SDS011;2239;48.152;11.584;2024-01-27T10:17:45;6.17;;;2.70;;
4452;SDS011;2239;48.152;11.584;2024-01-27T10:20:11;7.07;;;2.27;;
4452;SDS011;2239;48.152;11.584;2024-01-27T10:22:46;5.93;;;2.10;;
4452;SDS011;2239;48.152;11.584;2024-01-27T10:25:12;6.33;;;2.33;;
4452;SDS011;2239;48.152;11.584;2024-01-27T10:27:38;8.07;;;2.53;;
4452;SDS011;2239;48.152;11.584;2024-01-27T10:30:04;8.03;;;2.63;;
4452;SDS011;2239;48.152;11.584;2024-01-27T10:32:32;8.33;;;2.47;;
4452;SDS011;2239;48.152;11.584;2024-01-27T10:35:07;4.43;;;2.60;;
4452;SDS011;2239;48.152;11.584;2024-01-27T10:37:33;8.23;;;3.10;;
4452;SDS011;2239;48.152;11.584;2024-01-27T10:40:06;7.13;;;2.80;;
4452;SDS011;2239;48.152;11.584;2024-01-27T10:42:37;7.17;;;3.77;;
4452;SDS011;2239;48.152;11.584;2024-01-27T10:45:03;3.83;;;2.40;;
4452;SDS011;2239;48.152;11.584;2024-01-27T10:47:31;7.60;;;2.87;;
4452;SDS011;2239;48.152;11.584;2024-01-27T10:49:57;2.40;;;2.00;;
4452;SDS011;2239;48.152;11.584;2024-01-27T10:52:24;4.73;;;2.60;;
4452;SDS011;2239;48.152;11.584;2024-01-27T10:55:00;5.43;;;2.50;;
4452;SDS011;2239;48.152;11.584;2024-01-27T10:57:28;6.57;;;2.70;;
4452;SDS011;2239;48.152;11.584;2024-01-27T10:59:55;4.57;;;2.60;;
4452;SDS011;2239;48.152;11.584;2024-01-27T11:02:22;6.20;;;2.73;;
4452;SDS011;2239;48.152;11.584;2024-01-27T11:04:49;4.70;;;2.70;;
4452;SDS011;2239;48.152;11.584;2024-01-27T11:07:18;6.63;;;2.67;;
4452;SDS011;2239;48.152;11.584;2024-01-27T11:09:47;6.73;;;2.90;;
4452;SDS011;2239;48.152;11.584;2024-01-27T11:12:16;5.20;;;2.53;;
4452;SDS011;2239;48.152;11.584;2024-01-27T11:14:43;8.30;;;2.27;;
4452;SDS011;2239;48.152;11.584;2024-01-27T11:17:10;6.80;;;2.23;;
4452;SDS011;2239;48.152;11.584;2024-01-27T11:19:36;6.10;;;2.47;;
4452;SDS011;2239;48.152;11.584;2024-01-27T11:22:02;6.50;;;2.73;;
4452;SDS011;2239;48.152;11.584;2024-01-27T11:24:30;10.03;;;2.60;;
4452;SDS011;2239;48.152;11.584;2024-01-27T11:27:14;4.23;;;2.17;;
4452;SDS011;2239;48.152;11.584;2024-01-27T11:29:46;5.80;;;2.30;;
4452;SDS011;2239;48.152;11.584;2024-01-27T11:32:13;6.93;;;2.40;;
4452;SDS011;2239;48.152;11.584;2024-01-27T11:34:41;9.10;;;2.70;;
4452;SDS011;2239;48.152;11.584;2024-01-27T11:37:11;7.90;;;1.80;;
4452;SDS011;2239;48.152;11.584;2024-01-27T11:39:40;6.50;;;2.47;;
4452;SDS011;2239;48.152;11.584;2024-01-27T11:44:35;5.60;;;2.60;;
4452;SDS011;2239;48.152;11.584;2024-01-27T11:47:02;3.57;;;2.03;;
4452;SDS011;2239;48.152;11.584;2024-01-27T11:49:28;4.40;;;2.00;;
4452;SDS011;2239;48.152;11.584;2024-01-27T11:51:54;8.80;;;2.40;;
4452;SDS011;2239;48.152;11.584;2024-01-27T11:54:20;3.87;;;2.10;;
4452;SDS011;2239;48.152;11.584;2024-01-27T11:56:45;6.23;;;2.17;;
4452;SDS011;2239;48.152;11.584;2024-01-27T11:59:11;6.57;;;2.20;;
4452;SDS011;2239;48.152;11.584;2024-01-27T12:01:37;4.20;;;2.30;;
4452;SDS011;2239;48.152;11.584;2024-01-27T12:04:06;4.50;;;2.13;;
4452;SDS011;2239;48.152;11.584;2024-01-27T12:06:32;5.10;;;2.40;;
4452;SDS011;2239;48.152;11.584;2024-01-27T12:08:58;7.37;;;3.00;;
4452;SDS011;2239;48.152;11.584;2024-01-27T12:11:24;5.07;;;2.00;;
4452;SDS011;2239;48.152;11.584;2024-01-27T12:13:50;7.93;;;2.53;;
4452;SDS011;2239;48.152;11.584;2024-01-27T12:16:17;4.53;;;2.37;;
4452;SDS011;2239;48.152;11.584;2024-01-27T12:18:43;4.60;;;2.30;;
4452;SDS011;2239;48.152;11.584;2024-01-27T12:21:11;5.90;;;2.00;;
4452;SDS011;2239;48.152;11.584;2024-01-27T12:23:48;5.57;;;2.10;;
4452;SDS011;2239;48.152;11.584;2024-01-27T12:26:15;2.63;;;1.77;;
4452;SDS011;2239;48.152;11.584;2024-01-27T12:28:41;10.10;;;2.40;;
4452;SDS011;2239;48.152;11.584;2024-01-27T12:31:06;5.60;;;2.20;;
4452;SDS011;2239;48.152;11.584;2024-01-27T12:33:32;10.20;;;2.70;;
4452;SDS011;2239;48.152;11.584;2024-01-27T12:35:57;5.90;;;2.27;;
4452;SDS011;2239;48.152;11.584;2024-01-27T12:38:23;5.40;;;2.13;;
4452;SDS011;2239;48.152;11.584;2024-01-27T12:40:48;6.03;;;2.10;;
4452;SDS011;2239;48.152;11.584;2024-01-27T12:43:14;3.97;;;1.80;;
4452;SDS011;2239;48.152;11.584;2024-01-27T12:45:40;3.87;;;1.63;;
4452;SDS011;2239;48.152;11.584;2024-01-27T12:48:06;2.50;;;1.53;;
4452;SDS011;2239;48.152;11.584;2024-01-27T12:50:32;5.27;;;1.77;;
4452;SDS011;2239;48.152;11.584;2024-01-27T12:52:59;3.63;;;1.60;;
4452;SDS011;2239;48.152;11.584;2024-01-27T12:55:24;3.20;;;1.37;;
4452;SDS011;2239;48.152;11.584;2024-01-27T12:57:50;2.37;;;1.50;;
4452;SDS011;2239;48.152;11.584;2024-01-27T13:00:15;7.20;;;2.03;;
4452;SDS011;2239;48.152;11.584;2024-01-27T13:02:42;3.70;;;1.77;;
4452;SDS011;2239;48.152;11.584;2024-01-27T13:05:08;5.30;;;1.70;;
4452;SDS011;2239;48.152;11.584;2024-01-27T13:07:34;2.83;;;1.50;;
4452;SDS011;2239;48.152;11.584;2024-01-27T13:10:00;2.97;;;1.80;;
4452;SDS011;2239;48.152;11.584;2024-01-27T13:12:26;9.73;;;1.83;;
4452;SDS011;2239;48.152;11.584;2024-01-27T13:14:51;5.00;;;1.93;;
4452;SDS011;2239;48.152;11.584;2024-01-27T13:17:17;3.63;;;1.70;;
4452;SDS011;2239;48.152;11.584;2024-01-27T13:19:44;2.37;;;1.67;;
4452;SDS011;2239;48.152;11.584;2024-01-27T13:22:10;2.90;;;1.77;;
4452;SDS011;2239;48.152;11.584;2024-01-27T13:24:37;5.30;;;1.93;;
4452;SDS011;2239;48.152;11.584;2024-01-27T13:27:03;2.10;;;1.33;;
4452;SDS011;2239;48.152;11.584;2024-01-27T13:29:29;3.90;;;1.93;;
4452;SDS011;2239;48.152;11.584;2024-01-27T13:31:54;5.40;;;1.57;;
4452;SDS011;2239;48.152;11.584;2024-01-27T13:34:21;4.40;;;2.10;;
4452;SDS011;2239;48.152;11.584;2024-01-27T13:36:47;3.80;;;1.73;;
4452;SDS011;2239;48.152;11.584;2024-01-27T13:39:13;2.90;;;1.60;;
4452;SDS011;2239;48.152;11.584;2024-01-27T13:41:39;3.93;;;1.43;;
4452;SDS011;2239;48.152;11.584;2024-01-27T13:44:04;1.10;;;0.97;;
4452;SDS011;2239;48.152;11.584;2024-01-27T13:46:30;3.90;;;1.27;;
4452;SDS011;2239;48.152;11.584;2024-01-27T13:48:56;3.30;;;1.23;;
4452;SDS011;2239;48.152;11.584;2024-01-27T13:51:22;3.33;;;1.40;;
4452;SDS011;2239;48.152;11.584;2024-01-27T13:53:47;3.10;;;1.50;;
4452;SDS011;2239;48.152;11.584;2024-01-27T13:56:13;7.90;;;1.53;;
4452;SDS011;2239;48.152;11.584;2024-01-27T13:58:39;4.40;;;1.67;;
4452;SDS011;2239;48.152;11.584;2024-01-27T14:01:05;5.30;;;1.73;;
4452;SDS011;2239;48.152;11.584;2024-01-27T14:03:31;4.23;;;1.20;;
4452;SDS011;2239;48.152;11.584;2024-01-27T14:05:56;3.10;;;1.67;;
4452;SDS011;2239;48.152;11.584;2024-01-27T14:08:22;1.47;;;1.23;;
4452;SDS011;2239;48.152;11.584;2024-01-27T14:10:47;3.33;;;1.57;;
4452;SDS011;2239;48.152;11.584;2024-01-27T14:13:15;4.53;;;1.73;;
4452;SDS011;2239;48.152;11.584;2024-01-27T14:15:41;4.60;;;1.53;;
4452;SDS011;2239;48.152;11.584;2024-01-27T14:18:06;3.40;;;1.50;;
4452;SDS011;2239;48.152;11.584;2024-01-27T14:20:32;5.40;;;1.60;;
4452;SDS011;2239;48.152;11.584;2024-01-27T14:23:02;2.30;;;1.30;;
4452;SDS011;2239;48.152;11.584;2024-01-27T14:25:28;6.90;;;1.50;;
4452;SDS011;2239;48.152;11.584;2024-01-27T14:27:54;1.87;;;1.23;;
4452;SDS011;2239;48.152;11.584;2024-01-27T14:30:20;4.80;;;1.77;;
4452;SDS011;2239;48.152;11.584;2024-01-27T14:32:45;5.87;;;2.13;;
4452;SDS011;2239;48.152;11.584;2024-01-27T14:35:11;3.70;;;1.90;;
4452;SDS011;2239;48.152;11.584;2024-01-27T14:37:36;7.10;;;1.70;;
4452;SDS011;2239;48.152;11.584;2024-01-27T14:40:03;2.03;;;1.60;;
4452;SDS011;2239;48.152;11.584;2024-01-27T14:42:29;4.40;;;1.63;;
4452;SDS011;2239;48.152;11.584;2024-01-27T14:44:55;6.13;;;2.10;;
4452;SDS011;2239;48.152;11.584;2024-01-27T14:47:21;2.67;;;1.30;;
4452;SDS011;2239;48.152;11.584;2024-01-27T14:49:47;5.03;;;1.67;;
4452;SDS011;2239;48.152;11.584;2024-01-27T14:52:12;7.53;;;1.70;;
4452;SDS011;2239;48.152;11.584;2024-01-27T14:54:38;4.63;;;1.63;;
4452;SDS011;2239;48.152;11.584;2024-01-27T14:57:04;5.63;;;1.53;;